Boylston, New York
Current Conditions -  °F | °C
As of 4:56 PM on Monday 20 Oct 2014 (Local Time) from KART Reporting Station
Overcast Overcast  
Wind Chill: 54°   Ceiling: 5500
Heat Index: 54°   Visibility: 10mi
Dew Point: 36°   Wind: 9mph
Humidity: 51%   Direction: 190°S
Pressure: 29.86"   Gusts: NA
Location:  43.6481°N, 75.9881°W
Report Text: KART 202056Z AUTO 19008KT 10SM OVC055 12/02 A2986 RMK AO2 SLP113 T01220022 56008
Loading
Personal Weather Stations






























Interactive Weather Map
Tropical Storm Tracking
New forecast layout! Learn more

10-Day Weather Forecast

Advertisements
Track Severe Weather on mobile